Gelida, Spain
Current Conditions -  °F | °C
As of 7:00 AM on Monday 26 Jan 2015 (Local Time) from LEBL Reporting Station
Clear Clear  
Wind Chill:   Ceiling: Unl
Heat Index:   Visibility: 6mi
Dew Point: -3°   Wind: 18mph
Humidity: 57%   Direction: 330°NNW
Pressure: 30.24"   Gusts: NA
Location:  41.43°N, 1.87°E
Report Text: LEBL 260600Z 33016KT CAVOK 05/M03 Q1024 NOSIG
Loading
Personal Weather Stations






























Interactive Weather Map New forecast layout! Learn more

10-Day Weather Forecast

Advertisements
Track Severe Weather on mobile